Lanark, WV (25860)

5:33 PM EDT on June 24, 2017 (GMT -0400)
Sprague | | Change Station

Elev 2459 ft 37.79 °N, 81.18 °W | Updated 29 seconds ago

Partly Cloudy
Partly Cloudy
87.8 °F
Feels Like 88 °F
N
0.0
Wind Variable Wind from West

Today
High -- | Low -- °F
--% Chance of Precip.
Yesterday
High -- | Low -- °F
Precip. -- in
Pressure 29.96 in
Visibility 10.0 miles
Clouds Scattered Clouds 4800 ft
Heat Index 88 °F
Dew Point 61 °F
Humidity 41%
Rainfall 0.00 in
Snow Depth Not available.
6:03 AM 8:50 PM
New Moon, 1% visible
METAR KBKW 242051Z AUTO 32011KT 10SM SCT048 24/13 A3005 RMK AO2 SLP144 T02440133 58001 TSNO
Pressure 29.96 in
Visibility 10.0 miles
Clouds Scattered Clouds 4800 ft
Heat Index 88 °F
Dew Point 61 °F
Humidity 41%
Rainfall 0.00 in
Snow Depth Not available.
6:03 AM 8:50 PM
New Moon, 1% visible
METAR KBKW 242051Z AUTO 32011KT 10SM SCT048 24/13 A3005 RMK AO2 SLP144 T02440133 58001 TSNO

Get Severe Weather Alerts

Thanks for signing up!

Be on the lookout for a verification email in your inbox.

You'll start receiving the daily forecast at 6 AM.

×

10-Day Weather Forecast

Almanac

Astronomy

Jun. 24, 2017 Rise Set
Actual Time
Civil Twilight
Nautical Twilight
Astronomical Twilight
Moon
Length of Visible Light
Length of Day
Tomorrow will be .
, % of the Moon is Illuminated

Today's Extremes

State Highs State Lows

Community

WunderPhotos

Category 6

Welcome to Category 6. This is the collective home for Weather Underground's featured writeups by Dr. Jeff Masters (right), Bob Henson (left), Chris Burt, and other regular contributors.

Nearby

Air Quality

  Air Quality AQ Index Pollutant
Not available.

Snow Depth

Station Depth Elevation

Earthquake Activity

City Distance Mag. Time & Date
Minimum magnitude displayed is 2.5.

Coastal Water Temperatures

Place Temperature

Stations

Nearby Weather Stations

Station Location Temp. Windchill Dew Point Humidity Wind Precip. Elev Updated Type
                   

Watches & Warnings

There are currently no watches in effect.